Empire — PD5101 — position and weather

sailwx.info

Track history (hours):
 
Tides and Currents Weather Stations Pressure Air Temp Water Temp Dewpoint Dewpoint Depression Visibility Wind Speed Wind Dir Waves Ship Positions

Empire

Last reported at 2015-Mar-01 16:33 UTC. Time now 2015-Mar-01 16:47 UTC.
Position N 49°15' E 008°24'.

Length 183 m; draft 1 m.

Type: Ship. MMSI: 244670090.

Date/timePositionNaut miles runAvg speedWind from/ knotsBaromVisibWave heightAir tempDewpointWater temp
2015-Mar-01 16:33N 49°15' E 008°24'4 4.0
2015-Mar-01 15:33N 49°17' E 008°29'3 3.1
2015-Mar-01 14:33N 49°20' E 008°28'34 3.7
2015-Mar-01 05:17N 49°54' E 008°21'91 2.9
2015-Feb-27 22:11N 51°06' E 006°53'2 3.7
2015-Feb-27 21:32N 51°08' E 006°51'2 1.5
2015-Feb-27 20:33N 51°09' E 006°49'3 3.0
2015-Feb-27 19:33N 51°11' E 006°46'3 3.0
2015-Feb-27 18:33N 51°14' E 006°44'2 1.6
2015-Feb-27 17:33N 51°15' E 006°45'7 3.0
2015-Feb-27 15:21N 51°21' E 006°40'29 2.9
2015-Feb-27 05:29N 51°47' E 006°19'13 4.3
2015-Feb-27 02:26N 51°53' E 006°01'7 3.6
2015-Feb-27 00:33N 51°52' E 005°50'5 5.2
2015-Feb-26 23:33N 51°54' E 005°42'5 5.4
2015-Feb-26 22:33N 51°54' E 005°33'5 5.1
2015-Feb-26 21:33N 51°52' E 005°26'5 5.0
2015-Feb-26 20:33N 51°48' E 005°20'5 4.6
2015-Feb-26 19:33N 51°49' E 005°13'5 5.3
2015-Feb-26 18:33N 51°50' E 005°05'6 6.2
2015-Feb-26 17:33N 51°50' E 004°55'5 4.9
2015-Feb-26 16:33N 51°48' E 004°47'7 6.6
2015-Feb-26 15:33N 51°43' E 004°40'2 2.0
2015-Feb-26 14:33N 51°45' E 004°38'3 2.5
2015-Feb-26 13:32N 51°47' E 004°37'0 0.0
2015-Feb-26 12:33N 51°47' E 004°37'0 0.0
2015-Feb-26 11:31N 51°47' E 004°37'0 0.0
2015-Feb-26 10:33N 51°47' E 004°37'0 0.0
2015-Feb-26 09:33N 51°47' E 004°37'0 0.1
2015-Feb-26 08:33N 51°47' E 004°37'0 0.0
2015-Feb-26 07:33N 51°47' E 004°37'0 0.0
2015-Feb-26 06:33N 51°47' E 004°37'0 0.0
2015-Feb-26 05:33N 51°47' E 004°37'0 0.0
2015-Feb-26 04:33N 51°47' E 004°37'0 0.0
2015-Feb-26 03:33N 51°47' E 004°37'0 0.0
2015-Feb-26 02:33N 51°47' E 004°37'0 0.0
2015-Feb-26 01:33N 51°47' E 004°37'0 0.0
2015-Feb-26 00:33N 51°47' E 004°37'0 0.0
2015-Feb-25 23:33N 51°47' E 004°37'0 0.0
2015-Feb-25 22:33N 51°47' E 004°37'0 0.0
2015-Feb-25 21:33N 51°47' E 004°37'0 0.0
2015-Feb-25 20:33N 51°47' E 004°37'0 0.0
2015-Feb-25 19:33N 51°47' E 004°37'0 0.0
2015-Feb-25 18:33N 51°47' E 004°37'0 0.0
2015-Feb-25 17:33N 51°47' E 004°37'0 0.0
2015-Feb-25 16:33N 51°47' E 004°37'0 0.0
2015-Feb-25 15:33N 51°47' E 004°37'0 0.0
2015-Feb-25 14:33N 51°47' E 004°37'0 0.0
2015-Feb-25 13:33N 51°47' E 004°37'0 0.0
2015-Feb-25 12:33N 51°47' E 004°37'0 0.0
2015-Feb-25 11:33N 51°47' E 004°37'0 0.0
2015-Feb-25 10:33N 51°47' E 004°37'0 0.0
2015-Feb-25 09:33N 51°47' E 004°37'0 0.0
2015-Feb-25 08:33N 51°47' E 004°37'0 0.0
2015-Feb-25 07:33N 51°47' E 004°37'0 0.0
2015-Feb-25 06:33N 51°47' E 004°37'0 0.0
2015-Feb-25 05:33N 51°47' E 004°37'0 0.0
2015-Feb-25 04:33N 51°47' E 004°37'0 0.0
2015-Feb-25 03:33N 51°47' E 004°37'0 0.0
2015-Feb-25 02:33N 51°47' E 004°37'0 0.0
2015-Feb-25 01:33N 51°47' E 004°37'0 0.0
2015-Feb-25 00:33N 51°47' E 004°37'0 0.0
2015-Feb-24 23:33N 51°47' E 004°37'0 0.0
2015-Feb-24 22:33N 51°47' E 004°37'0 0.0
2015-Feb-24 21:33N 51°47' E 004°37'0 0.0
2015-Feb-24 20:33N 51°47' E 004°37'0 0.0
2015-Feb-24 19:33N 51°47' E 004°37'0 0.0
2015-Feb-24 18:33N 51°47' E 004°37'0 0.0
2015-Feb-24 17:33N 51°47' E 004°37'0 0.5
2015-Feb-24 16:33N 51°48' E 004°37'4 3.7
2015-Feb-24 15:33N 51°50' E 004°43'0 0.1
2015-Feb-24 14:33N 51°50' E 004°43'0 0.0
2015-Feb-24 13:33N 51°50' E 004°43'0 0.1
2015-Feb-24 12:33N 51°50' E 004°43'0 0.0
2015-Feb-24 11:33N 51°50' E 004°43'0 0.0
2015-Feb-24 10:33N 51°50' E 004°43'0 0.0
2015-Feb-24 09:33N 51°50' E 004°43'0 0.0
2015-Feb-24 08:33N 51°50' E 004°43'0 0.0
2015-Feb-24 07:33N 51°50' E 004°43'0 0.0
2015-Feb-24 06:33N 51°50' E 004°43'0 0.0
2015-Feb-24 05:33N 51°50' E 004°43'0 0.0
2015-Feb-24 04:33N 51°50' E 004°43'0 0.0
2015-Feb-24 03:33N 51°50' E 004°43'0 0.0
2015-Feb-24 02:33N 51°50' E 004°43'0 0.0
2015-Feb-24 01:33N 51°50' E 004°43'0 0.0
2015-Feb-24 00:33N 51°50' E 004°43'0 0.0
2015-Feb-23 23:33N 51°50' E 004°43'0 0.0
2015-Feb-23 22:33N 51°50' E 004°43'0 0.0
2015-Feb-23 21:33N 51°50' E 004°43'2 2.1
2015-Feb-23 20:34N 51°49' E 004°40'0 0.2
2015-Feb-23 19:33N 51°49' E 004°39'2 2.4
2015-Feb-23 18:33N 51°49' E 004°43'0 0.0
2015-Feb-23 17:33N 51°49' E 004°43'0 0.0
2015-Feb-23 16:33N 51°49' E 004°43'0 0.0
2015-Feb-23 15:33N 51°49' E 004°43'0 0.0
2015-Feb-23 14:34N 51°49' E 004°43'0 0.0
2015-Feb-23 13:33N 51°49' E 004°43'0 0.0
2015-Feb-23 12:34N 51°49' E 004°43'0 0.0
2015-Feb-23 11:33N 51°49' E 004°43'0 0.0
2015-Feb-23 10:33N 51°49' E 004°43'0 0.2
2015-Feb-23 09:33N 51°49' E 004°43'8 8.4
2015-Feb-23 08:33N 51°50' E 004°57'1010.2
2015-Feb-23 07:33N 51°49' E 005°13'9 9.4
2015-Feb-23 06:33N 51°53' E 005°26'1010.2
2015-Feb-23 05:33N 51°53' E 005°43'8 7.8
2015-Feb-23 04:33N 51°53' E 005°56'16 7.1
2015-Feb-23 02:21N 51°47' E 006°19'38 6.5
2015-Feb-22 20:33N 51°13' E 006°46'5 4.9
2015-Feb-22 19:33N 51°09' E 006°48'6 5.0
2015-Feb-22 18:26N 51°04' E 006°53'114 6.3
2015-Feb-22 00:16N 49°27' E 008°26'3 0.2
2015-Feb-21 11:03N 49°26' E 008°31'106 2.7
2015-Feb-19 19:32N 50°55' E 006°58'  
Track history (hours):
 
Tides and Currents Weather Stations Pressure Air Temp Water Temp Dewpoint Dewpoint Depression Visibility Wind Speed Wind Dir Waves Ship Positions

Empire

Last reported at 2015-Mar-01 16:33 UTC. Time now 2015-Mar-01 16:47 UTC.
Position N 49°15' E 008°24'.

Length 183 m; draft 1 m.

Type: Ship. MMSI: 244670090.

Date/timePositionNaut miles runAvg speedWind from/ knotsBaromVisibWave heightAir tempDewpointWater temp
2015-Mar-01 16:33N 49°15' E 008°24'4 4.0
2015-Mar-01 15:33N 49°17' E 008°29'3 3.1
2015-Mar-01 14:33N 49°20' E 008°28'34 3.7
2015-Mar-01 05:17N 49°54' E 008°21'91 2.9
2015-Feb-27 22:11N 51°06' E 006°53'2 3.7
2015-Feb-27 21:32N 51°08' E 006°51'2 1.5
2015-Feb-27 20:33N 51°09' E 006°49'3 3.0
2015-Feb-27 19:33N 51°11' E 006°46'3 3.0
2015-Feb-27 18:33N 51°14' E 006°44'2 1.6
2015-Feb-27 17:33N 51°15' E 006°45'7 3.0
2015-Feb-27 15:21N 51°21' E 006°40'29 2.9
2015-Feb-27 05:29N 51°47' E 006°19'13 4.3
2015-Feb-27 02:26N 51°53' E 006°01'7 3.6
2015-Feb-27 00:33N 51°52' E 005°50'5 5.2
2015-Feb-26 23:33N 51°54' E 005°42'5 5.4
2015-Feb-26 22:33N 51°54' E 005°33'5 5.1
2015-Feb-26 21:33N 51°52' E 005°26'5 5.0
2015-Feb-26 20:33N 51°48' E 005°20'5 4.6
2015-Feb-26 19:33N 51°49' E 005°13'5 5.3
2015-Feb-26 18:33N 51°50' E 005°05'6 6.2
2015-Feb-26 17:33N 51°50' E 004°55'5 4.9
2015-Feb-26 16:33N 51°48' E 004°47'7 6.6
2015-Feb-26 15:33N 51°43' E 004°40'2 2.0
2015-Feb-26 14:33N 51°45' E 004°38'3 2.5
2015-Feb-26 13:32N 51°47' E 004°37'0 0.0
2015-Feb-26 12:33N 51°47' E 004°37'0 0.0
2015-Feb-26 11:31N 51°47' E 004°37'0 0.0
2015-Feb-26 10:33N 51°47' E 004°37'0 0.0
2015-Feb-26 09:33N 51°47' E 004°37'0 0.1
2015-Feb-26 08:33N 51°47' E 004°37'0 0.0
2015-Feb-26 07:33N 51°47' E 004°37'0 0.0
2015-Feb-26 06:33N 51°47' E 004°37'0 0.0
2015-Feb-26 05:33N 51°47' E 004°37'0 0.0
2015-Feb-26 04:33N 51°47' E 004°37'0 0.0
2015-Feb-26 03:33N 51°47' E 004°37'0 0.0
2015-Feb-26 02:33N 51°47' E 004°37'0 0.0
2015-Feb-26 01:33N 51°47' E 004°37'0 0.0
2015-Feb-26 00:33N 51°47' E 004°37'0 0.0
2015-Feb-25 23:33N 51°47' E 004°37'0 0.0
2015-Feb-25 22:33N 51°47' E 004°37'0 0.0
2015-Feb-25 21:33N 51°47' E 004°37'0 0.0
2015-Feb-25 20:33N 51°47' E 004°37'0 0.0
2015-Feb-25 19:33N 51°47' E 004°37'0 0.0
2015-Feb-25 18:33N 51°47' E 004°37'0 0.0
2015-Feb-25 17:33N 51°47' E 004°37'0 0.0
2015-Feb-25 16:33N 51°47' E 004°37'0 0.0
2015-Feb-25 15:33N 51°47' E 004°37'0 0.0
2015-Feb-25 14:33N 51°47' E 004°37'0 0.0
2015-Feb-25 13:33N 51°47' E 004°37'0 0.0
2015-Feb-25 12:33N 51°47' E 004°37'0 0.0
2015-Feb-25 11:33N 51°47' E 004°37'0 0.0
2015-Feb-25 10:33N 51°47' E 004°37'0 0.0
2015-Feb-25 09:33N 51°47' E 004°37'0 0.0
2015-Feb-25 08:33N 51°47' E 004°37'0 0.0
2015-Feb-25 07:33N 51°47' E 004°37'0 0.0
2015-Feb-25 06:33N 51°47' E 004°37'0 0.0
2015-Feb-25 05:33N 51°47' E 004°37'0 0.0
2015-Feb-25 04:33N 51°47' E 004°37'0 0.0
2015-Feb-25 03:33N 51°47' E 004°37'0 0.0
2015-Feb-25 02:33N 51°47' E 004°37'0 0.0
2015-Feb-25 01:33N 51°47' E 004°37'0 0.0
2015-Feb-25 00:33N 51°47' E 004°37'0 0.0
2015-Feb-24 23:33N 51°47' E 004°37'0 0.0
2015-Feb-24 22:33N 51°47' E 004°37'0 0.0
2015-Feb-24 21:33N 51°47' E 004°37'0 0.0
2015-Feb-24 20:33N 51°47' E 004°37'0 0.0
2015-Feb-24 19:33N 51°47' E 004°37'0 0.0
2015-Feb-24 18:33N 51°47' E 004°37'0 0.0
2015-Feb-24 17:33N 51°47' E 004°37'0 0.5
2015-Feb-24 16:33N 51°48' E 004°37'4 3.7
2015-Feb-24 15:33N 51°50' E 004°43'0 0.1
2015-Feb-24 14:33N 51°50' E 004°43'0 0.0
2015-Feb-24 13:33N 51°50' E 004°43'0 0.1
2015-Feb-24 12:33N 51°50' E 004°43'0 0.0
2015-Feb-24 11:33N 51°50' E 004°43'0 0.0
2015-Feb-24 10:33N 51°50' E 004°43'0 0.0
2015-Feb-24 09:33N 51°50' E 004°43'0 0.0
2015-Feb-24 08:33N 51°50' E 004°43'0 0.0
2015-Feb-24 07:33N 51°50' E 004°43'0 0.0
2015-Feb-24 06:33N 51°50' E 004°43'0 0.0
2015-Feb-24 05:33N 51°50' E 004°43'0 0.0
2015-Feb-24 04:33N 51°50' E 004°43'0 0.0
2015-Feb-24 03:33N 51°50' E 004°43'0 0.0
2015-Feb-24 02:33N 51°50' E 004°43'0 0.0
2015-Feb-24 01:33N 51°50' E 004°43'0 0.0
2015-Feb-24 00:33N 51°50' E 004°43'0 0.0
2015-Feb-23 23:33N 51°50' E 004°43'0 0.0
2015-Feb-23 22:33N 51°50' E 004°43'0 0.0
2015-Feb-23 21:33N 51°50' E 004°43'2 2.1
2015-Feb-23 20:34N 51°49' E 004°40'0 0.2
2015-Feb-23 19:33N 51°49' E 004°39'2 2.4
2015-Feb-23 18:33N 51°49' E 004°43'0 0.0
2015-Feb-23 17:33N 51°49' E 004°43'0 0.0
2015-Feb-23 16:33N 51°49' E 004°43'0 0.0
2015-Feb-23 15:33N 51°49' E 004°43'0 0.0
2015-Feb-23 14:34N 51°49' E 004°43'0 0.0
2015-Feb-23 13:33N 51°49' E 004°43'0 0.0
2015-Feb-23 12:34N 51°49' E 004°43'0 0.0
2015-Feb-23 11:33N 51°49' E 004°43'0 0.0
2015-Feb-23 10:33N 51°49' E 004°43'0 0.2
2015-Feb-23 09:33N 51°49' E 004°43'8 8.4
2015-Feb-23 08:33N 51°50' E 004°57'1010.2
2015-Feb-23 07:33N 51°49' E 005°13'9 9.4
2015-Feb-23 06:33N 51°53' E 005°26'1010.2
2015-Feb-23 05:33N 51°53' E 005°43'8 7.8
2015-Feb-23 04:33N 51°53' E 005°56'16 7.1
2015-Feb-23 02:21N 51°47' E 006°19'38 6.5
2015-Feb-22 20:33N 51°13' E 006°46'5 4.9
2015-Feb-22 19:33N 51°09' E 006°48'6 5.0
2015-Feb-22 18:26N 51°04' E 006°53'114 6.3
2015-Feb-22 00:16N 49°27' E 008°26'3 0.2
2015-Feb-21 11:03N 49°26' E 008°31'106 2.7
2015-Feb-19 19:32N 50°55' E 006°58'  

Dump ship's entire track history